Time;durP1;ratioP1;P1;durP2;ratioP2;P2;SDS_P1;SDS_P2;PMS_P1;PMS_P2;Temp;Humidity;BMP_temperature;BMP_pressure;BME280_temperature;BME280_humidity;BME280_pressure;Samples;Min_cycle;Max_cycle;Signal;HPM_P1;HPM_P2
2022/07/19 00:00:24;;;;;;;1.58;1.15;;;;;;;29.06;37.33;99291.22;5075465;28;20865;-69
2022/07/19 00:02:51;;;;;;;1.58;1.10;;;;;;;29.06;37.54;99294.03;5086534;28;20063;-57
2022/07/19 00:05:18;;;;;;;1.50;1.10;;;;;;;29.05;37.49;99298.06;5080963;28;20109;-69
2022/07/19 00:07:45;;;;;;;1.83;1.00;;;;;;;29.05;37.59;99292.44;5077360;28;20076;-57
2022/07/19 00:10:12;;;;;;;1.83;1.23;;;;;;;29.06;37.42;99290.44;5080165;28;20080;-69
2022/07/19 00:12:39;;;;;;;1.70;1.20;;;;;;;29.05;37.36;99298.06;5091716;28;20097;-69
2022/07/19 00:15:07;;;;;;;1.80;1.10;;;;;;;29.03;37.67;99294.91;5080545;28;20059;-70
2022/07/19 00:17:32;;;;;;;1.33;1.00;;;;;;;29.03;37.67;99289.28;5088575;28;20076;-69
2022/07/19 00:19:58;;;;;;;1.88;1.00;;;;;;;29.01;37.54;99280.47;5085169;28;20048;-69
2022/07/19 00:22:23;;;;;;;1.30;1.00;;;;;;;29.04;37.86;99292.88;5081189;28;20051;-57
2022/07/19 00:24:49;;;;;;;1.60;1.10;;;;;;;29.08;37.57;99284.34;5082768;28;20041;-57
2022/07/19 00:27:14;;;;;;;1.75;1.23;;;;;;;29.05;37.72;99297.28;5081212;28;20488;-57
2022/07/19 00:29:39;;;;;;;1.70;1.10;;;;;;;29.00;37.82;99280.91;5086713;28;20048;-69
2022/07/19 00:32:05;;;;;;;1.40;1.00;;;;;;;29.00;37.53;99287.31;5085056;28;20045;-69
2022/07/19 00:34:31;;;;;;;1.45;1.00;;;;;;;28.97;37.82;99285.38;5082133;28;20040;-69
2022/07/19 00:36:56;;;;;;;1.70;1.10;;;;;;;28.99;37.61;99291.38;5077572;28;20086;-69
2022/07/19 00:39:22;;;;;;;1.35;1.00;;;;;;;28.99;37.71;99279.31;5083587;28;20044;-57
2022/07/19 00:41:47;;;;;;;1.60;1.10;;;;;;;29.00;37.50;99278.06;5083780;28;20051;-57
2022/07/19 00:44:13;;;;;;;1.92;1.27;;;;;;;29.02;37.52;99290.50;5071151;28;20485;-58
2022/07/19 00:46:38;;;;;;;1.55;1.10;;;;;;;29.02;37.67;99296.16;5084661;28;20049;-57
2022/07/19 00:49:04;;;;;;;1.70;1.10;;;;;;;29.03;37.86;99294.91;5071369;28;20040;-57
2022/07/19 00:51:33;;;;;;;1.67;1.02;;;;;;;28.96;37.68;99283.78;5080179;28;20028;-69
2022/07/19 00:54:00;;;;;;;1.30;0.98;;;;;;;29.00;37.82;99290.13;5084070;28;20507;-58
2022/07/19 00:56:27;;;;;;;1.67;1.10;;;;;;;28.99;37.57;99296.22;5085318;28;20125;-57
2022/07/19 00:58:54;;;;;;;1.60;1.10;;;;;;;28.97;37.87;99293.03;5080087;28;20121;-57
2022/07/19 01:01:19;;;;;;;2.17;1.20;;;;;;;28.97;37.48;99285.38;5078713;28;20123;-69
2022/07/19 01:03:46;;;;;;;1.42;1.00;;;;;;;28.97;37.83;99295.84;5081287;28;20182;-57
2022/07/19 01:06:12;;;;;;;1.48;1.00;;;;;;;28.97;37.84;99293.03;5075159;28;20538;-69
2022/07/19 01:08:37;;;;;;;1.90;1.20;;;;;;;28.96;37.66;99300.69;5085934;28;20041;-69
2022/07/19 01:11:05;;;;;;;1.42;1.05;;;;;;;28.96;37.58;99299.91;5086169;28;20071;-69
2022/07/19 01:13:31;;;;;;;1.88;1.10;;;;;;;28.97;37.59;99296.66;5080741;28;20044;-69
2022/07/19 01:15:57;;;;;;;1.80;1.20;;;;;;;28.96;37.76;99289.44;5073749;28;20082;-58
2022/07/19 01:18:22;;;;;;;1.92;1.20;;;;;;;28.94;37.99;99291.09;5078479;28;20041;-57
2022/07/19 01:20:47;;;;;;;1.30;1.00;;;;;;;28.98;37.75;99294.63;5075345;28;20040;-57
2022/07/19 01:23:14;;;;;;;1.52;1.00;;;;;;;28.97;37.96;99301.50;5084057;28;20052;-56
2022/07/19 01:25:40;;;;;;;1.50;1.00;;;;;;;28.95;37.79;99298.31;5077429;28;20076;-69
2022/07/19 01:28:06;;;;;;;1.42;1.10;;;;;;;28.94;37.94;99289.06;5078206;28;20774;-70
2022/07/19 01:30:35;;;;;;;1.50;1.10;;;;;;;28.95;37.75;99293.47;5079935;28;20040;-69
2022/07/19 01:33:00;;;;;;;1.52;1.10;;;;;;;28.94;37.83;99293.91;5070728;28;20049;-69
2022/07/19 01:35:27;;;;;;;1.50;1.10;;;;;;;28.94;37.67;99297.53;5069832;28;20082;-57
2022/07/19 01:37:53;;;;;;;1.60;1.10;;;;;;;28.92;37.62;99288.69;5071892;28;20039;-57
2022/07/19 01:40:19;;;;;;;1.55;1.10;;;;;;;28.94;37.77;99302.38;5075168;28;20032;-68
2022/07/19 01:42:46;;;;;;;1.38;1.08;;;;;;;28.94;37.63;99303.16;5075084;28;20933;-57
2022/07/19 01:45:13;;;;;;;1.13;0.90;;;;;;;28.95;37.98;99296.28;5080419;28;20067;-69
2022/07/19 01:47:40;;;;;;;1.70;1.10;;;;;;;28.94;37.65;99303.16;5085502;28;20538;-58
2022/07/19 01:50:07;;;;;;;1.38;1.00;;;;;;;28.92;37.65;99304.81;5082544;28;20051;-69
2022/07/19 01:52:32;;;;;;;1.83;1.20;;;;;;;28.90;37.97;99293.94;5071973;28;20049;-57
2022/07/19 01:54:58;;;;;;;1.40;1.00;;;;;;;28.90;37.80;99298.78;5074037;28;20404;-57
2022/07/19 01:57:23;;;;;;;1.52;1.00;;;;;;;28.88;37.65;99302.03;5070086;28;20404;-57
2022/07/19 01:59:49;;;;;;;1.60;1.10;;;;;;;28.89;37.67;99300.00;5075393;28;20044;-69
2022/07/19 02:02:14;;;;;;;1.35;1.00;;;;;;;28.91;37.68;99295.56;5068310;28;20048;-57
2022/07/19 02:04:39;;;;;;;2.00;1.25;;;;;;;28.91;37.60;99300.41;5072664;28;20040;-68
2022/07/19 02:07:05;;;;;;;1.42;1.00;;;;;;;28.90;37.65;99293.94;5076286;28;20044;-69
2022/07/19 02:09:30;;;;;;;1.77;1.10;;;;;;;28.90;37.43;99293.94;5070337;28;20084;-69
2022/07/19 02:11:56;;;;;;;1.60;1.10;;;;;;;28.88;37.50;99299.22;5084397;28;20059;-57
2022/07/19 02:14:21;;;;;;;1.65;1.00;;;;;;;28.90;37.44;99296.75;5105566;28;20051;-57
2022/07/19 02:16:47;;;;;;;1.60;1.10;;;;;;;28.92;37.46;99293.53;5104011;28;20153;-57
2022/07/19 02:19:12;;;;;;;2.10;1.20;;;;;;;28.91;37.32;99298.38;5095638;28;20050;-69
2022/07/19 02:21:38;;;;;;;1.48;1.00;;;;;;;28.90;37.44;99293.16;5092435;28;20044;-69
2022/07/19 02:24:05;;;;;;;1.38;1.00;;;;;;;28.87;37.35;99292.00;5090116;28;20044;-69
2022/07/19 02:26:33;;;;;;;1.80;1.10;;;;;;;28.90;37.35;99291.13;5103932;28;20043;-57
2022/07/19 02:28:58;;;;;;;1.80;1.10;;;;;;;28.89;37.21;99298.00;5104444;28;20061;-58
2022/07/19 02:31:24;;;;;;;1.50;1.00;;;;;;;28.89;37.33;99292.38;5108260;28;20472;-57
2022/07/19 02:33:49;;;;;;;1.27;1.00;;;;;;;28.88;37.57;99289.97;5108486;28;20392;-57
2022/07/19 02:36:15;;;;;;;1.58;1.00;;;;;;;28.88;37.25;99292.81;5106146;28;20063;-57
2022/07/19 02:38:41;;;;;;;1.70;1.10;;;;;;;28.86;37.46;99293.22;5107656;28;20040;-69
2022/07/19 02:41:07;;;;;;;1.45;1.10;;;;;;;28.85;37.63;99296.47;5102881;28;20052;-56
2022/07/19 02:43:33;;;;;;;1.85;1.15;;;;;;;28.85;37.30;99300.06;5098137;28;20517;-57
2022/07/19 02:45:58;;;;;;;1.23;0.90;;;;;;;28.84;37.68;99297.69;5096470;28;20048;-69
2022/07/19 02:48:24;;;;;;;2.00;1.08;;;;;;;28.83;37.40;99293.28;5103404;28;20108;-57
2022/07/19 02:50:49;;;;;;;1.73;1.30;;;;;;;28.85;37.47;99294.44;5097976;28;20036;-57
2022/07/19 02:53:15;;;;;;;1.27;0.95;;;;;;;28.83;37.36;99299.72;5095580;28;20565;-69
2022/07/19 02:55:40;;;;;;;1.75;1.17;;;;;;;28.85;37.59;99299.28;5101495;28;20035;-57
2022/07/19 02:58:06;;;;;;;1.70;1.10;;;;;;;28.86;37.43;99296.03;5097511;28;20055;-70
2022/07/19 03:00:32;;;;;;;1.50;1.13;;;;;;;28.85;37.46;99302.88;5095098;28;20070;-69
2022/07/19 03:05:42;;;;;;;1.48;1.15;;;;;;;28.84;37.53;99309.75;5098753;28;20402;-58
2022/07/19 03:08:07;;;;;;;1.55;1.20;;;;;;;28.83;37.64;99310.97;5102831;28;20119;-69
2022/07/19 03:10:32;;;;;;;1.70;1.10;;;;;;;28.82;37.75;99312.22;5098283;28;20135;-57
2022/07/19 03:12:58;;;;;;;1.70;1.10;;;;;;;28.83;37.92;99313.00;5098076;28;20039;-57
2022/07/19 03:15:23;;;;;;;1.30;1.00;;;;;;;28.82;37.88;99311.41;5096065;28;20113;-57
2022/07/19 03:17:52;;;;;;;1.33;1.00;;;;;;;28.84;37.67;99314.59;5092611;28;20119;-58
2022/07/19 03:20:17;;;;;;;1.85;1.17;;;;;;;28.83;37.75;99313.00;5102408;28;20607;-57
2022/07/19 03:22:43;;;;;;;1.80;1.30;;;;;;;28.83;37.60;99310.19;5105394;28;20046;-57
2022/07/19 03:25:08;;;;;;;1.50;1.13;;;;;;;28.80;37.67;99311.84;5096070;28;20435;-69
2022/07/19 03:27:35;;;;;;;1.27;0.98;;;;;;;28.82;37.80;99311.41;5097859;28;20174;-70
2022/07/19 03:30:00;;;;;;;1.48;0.95;;;;;;;28.83;37.90;99318.63;5088460;28;20127;-70
2022/07/19 03:32:26;;;;;;;1.55;1.10;;;;;;;28.82;37.69;99317.84;5104734;28;20126;-70
2022/07/19 03:34:51;;;;;;;1.75;1.20;;;;;;;28.82;37.91;99317.84;5100481;28;20522;-70
2022/07/19 03:37:17;;;;;;;1.90;1.38;;;;;;;28.81;37.84;99327.53;5089189;28;20046;-70
2022/07/19 03:39:43;;;;;;;1.58;1.17;;;;;;;28.81;37.81;99321.09;5097255;28;20032;-69
2022/07/19 03:42:09;;;;;;;1.80;1.30;;;;;;;28.81;37.83;99324.69;5097432;28;20043;-70
2022/07/19 03:44:34;;;;;;;1.67;1.17;;;;;;;28.81;37.83;99319.06;5101810;28;20048;-69
2022/07/19 03:46:59;;;;;;;1.60;1.20;;;;;;;28.79;37.69;99322.31;5087627;28;20081;-57
2022/07/19 03:49:25;;;;;;;1.90;1.20;;;;;;;28.81;37.77;99327.53;5087947;28;20040;-58
2022/07/19 03:51:50;;;;;;;1.60;1.20;;;;;;;28.80;37.85;99323.13;5100927;28;20047;-58
2022/07/19 03:54:16;;;;;;;1.40;1.10;;;;;;;28.78;37.81;99326.34;5097922;28;20040;-59
2022/07/19 03:56:41;;;;;;;1.83;1.10;;;;;;;28.78;37.96;99334.78;5092898;28;20036;-57
2022/07/19 03:59:06;;;;;;;1.70;1.08;;;;;;;28.78;38.02;99334.00;5097241;28;20407;-69
2022/07/19 04:01:32;;;;;;;1.35;1.08;;;;;;;28.74;37.97;99325.63;5093786;28;20183;-69
2022/07/19 04:03:57;;;;;;;1.80;1.20;;;;;;;28.77;38.09;99335.22;5092676;28;20412;-69
2022/07/19 04:06:22;;;;;;;1.58;1.10;;;;;;;28.79;37.96;99341.22;5097435;28;20400;-69
2022/07/19 04:08:48;;;;;;;2.05;1.30;;;;;;;28.78;37.97;99339.63;5096894;28;20135;-68
2022/07/19 04:11:13;;;;;;;1.60;1.10;;;;;;;28.79;37.99;99339.22;5090225;28;20044;-69
2022/07/19 04:13:39;;;;;;;1.88;1.25;;;;;;;28.81;37.87;99346.44;5099578;28;20067;-69
2022/07/19 04:16:05;;;;;;;1.33;1.00;;;;;;;28.79;37.84;99344.03;5105521;28;20056;-69
2022/07/19 04:18:30;;;;;;;1.77;1.20;;;;;;;28.78;38.27;99351.69;5092374;28;20040;-69
2022/07/19 04:20:56;;;;;;;1.35;1.00;;;;;;;28.81;38.06;99355.66;5093557;28;20055;-69
2022/07/19 04:23:21;;;;;;;2.00;1.27;;;;;;;28.82;38.10;99350.84;5091505;28;20040;-69
2022/07/19 04:25:46;;;;;;;2.55;1.30;;;;;;;28.77;38.09;99352.13;5094436;28;20048;-57
2022/07/19 04:28:12;;;;;;;1.45;1.10;;;;;;;28.79;38.03;99355.28;5102567;28;20039;-57
2022/07/19 04:30:37;;;;;;;1.40;1.10;;;;;;;28.75;38.46;99355.38;5107043;28;20044;-57
2022/07/19 04:33:03;;;;;;;1.58;1.10;;;;;;;28.75;38.19;99358.19;5091310;28;20041;-70
2022/07/19 04:35:28;;;;;;;1.75;1.30;;;;;;;28.77;38.51;99360.56;5090331;28;20048;-57
2022/07/19 04:37:53;;;;;;;1.70;1.20;;;;;;;28.78;38.39;99368.56;5091599;28;20046;-57
2022/07/19 04:40:19;;;;;;;1.63;1.13;;;;;;;28.82;38.23;99365.69;5102837;28;20040;-58
2022/07/19 04:42:44;;;;;;;1.60;1.10;;;;;;;28.77;38.37;99354.94;5106653;28;20086;-58
2022/07/19 04:45:11;;;;;;;1.52;1.13;;;;;;;28.77;38.43;99360.56;5106438;28;20075;-57
2022/07/19 04:47:37;;;;;;;1.77;1.20;;;;;;;28.76;38.59;99356.16;5094542;28;20545;-70
2022/07/19 04:50:03;;;;;;;1.67;1.10;;;;;;;28.81;38.40;99352.06;5100943;28;20040;-70
2022/07/19 04:52:29;;;;;;;1.70;1.10;;;;;;;28.81;38.16;99361.31;5097472;28;20134;-69
2022/07/19 04:54:54;;;;;;;1.63;1.20;;;;;;;28.84;38.09;99360.44;5097836;28;20406;-69
2022/07/19 04:57:20;;;;;;;1.80;1.20;;;;;;;28.87;38.22;99358.78;5097206;28;20043;-57
2022/07/19 04:59:46;;;;;;;1.90;1.20;;;;;;;28.87;38.49;99368.03;5089694;28;20475;-57
2022/07/19 05:02:11;;;;;;;1.80;1.20;;;;;;;28.88;38.25;99361.16;5100522;28;20052;-70
2022/07/19 05:04:38;;;;;;;2.33;1.30;;;;;;;28.90;38.27;99361.53;5104049;28;20043;-57
2022/07/19 05:07:03;;;;;;;2.40;1.27;;;;;;;28.93;38.32;99369.13;5103716;28;20495;-58
2022/07/19 05:09:29;;;;;;;1.60;1.20;;;;;;;28.96;38.23;99368.28;5107333;28;20047;-58
2022/07/19 05:11:56;;;;;;;2.00;1.30;;;;;;;29.01;38.25;99370.59;5098249;28;20039;-57
2022/07/19 05:14:22;;;;;;;1.92;1.10;;;;;;;29.04;38.48;99375.34;5096966;28;20039;-58
2022/07/19 05:16:51;;;;;;;1.88;1.20;;;;;;;29.01;38.51;99378.25;5100513;28;20385;-58
2022/07/19 05:19:17;;;;;;;2.70;1.30;;;;;;;29.01;38.80;99375.44;5095214;28;20039;-58
2022/07/19 05:21:43;;;;;;;3.97;1.67;;;;;;;29.01;38.53;99367.78;5089764;28;20048;-71
2022/07/19 05:24:09;;;;;;;2.53;1.38;;;;;;;29.04;38.48;99369.72;5096474;28;20063;-58
2022/07/19 05:26:35;;;;;;;3.30;1.40;;;;;;;29.08;38.31;99374.47;5094389;28;20443;-58
2022/07/19 05:29:01;;;;;;;4.18;1.40;;;;;;;29.06;38.26;99378.53;5098555;28;20484;-71
2022/07/19 05:31:27;;;;;;;4.22;1.20;;;;;;;29.10;38.29;99367.19;5102855;28;20127;-71
2022/07/19 05:33:53;;;;;;;3.05;1.33;;;;;;;29.12;38.08;99381.63;5100158;28;20250;-58
2022/07/19 05:36:18;;;;;;;2.03;1.10;;;;;;;29.15;37.97;99379.97;5093091;28;20044;-57
2022/07/19 05:38:44;;;;;;;2.20;1.40;;;;;;;29.16;37.78;99382.38;5091090;28;20694;-58
2022/07/19 05:41:10;;;;;;;1.80;1.25;;;;;;;29.14;37.67;99370.72;5089512;28;20040;-58
2022/07/19 05:43:38;;;;;;;1.92;1.40;;;;;;;29.20;37.74;99376.66;5096433;28;20445;-58
2022/07/19 05:46:04;;;;;;;2.00;1.30;;;;;;;29.18;37.80;99379.13;5097642;28;20100;-57
2022/07/19 05:48:30;;;;;;;2.05;1.20;;;;;;;29.17;37.58;99360.63;5073327;28;20051;-58
2022/07/19 05:50:56;;;;;;;1.60;1.10;;;;;;;29.16;37.46;99373.91;5101799;28;20048;-58
2022/07/19 05:53:22;;;;;;;1.50;1.10;;;;;;;29.22;37.53;99374.19;5089616;28;20119;-70
2022/07/19 05:55:47;;;;;;;3.60;1.25;;;;;;;29.21;37.83;99370.56;5089649;28;20160;-71
2022/07/19 05:58:13;;;;;;;2.65;1.30;;;;;;;29.22;37.53;99375.00;5105612;28;20082;-70
2022/07/19 06:01:17;;;;;;;5.88;1.30;;;;;;;29.23;37.58;99382.22;5102097;28;20480;-71
2022/07/19 06:03:24;;;;;;;2.90;1.33;;;;;;;29.22;37.30;99368.56;5101228;28;20035;-71
2022/07/19 06:05:49;;;;;;;2.95;1.20;;;;;;;29.01;37.51;99381.88;5100719;28;20089;-70
2022/07/19 06:08:15;;;;;;;1.90;1.30;;;;;;;28.85;38.62;99383.75;5108329;28;20048;-71
2022/07/19 06:10:41;;;;;;;4.22;1.50;;;;;;;28.76;38.73;99381.50;5106750;28;20519;-58
2022/07/19 06:13:06;;;;;;;1.92;1.20;;;;;;;28.70;38.72;99381.19;5094053;28;20046;-71
2022/07/19 06:15:32;;;;;;;2.38;1.40;;;;;;;28.69;38.68;99376.78;5093282;28;20036;-57
2022/07/19 06:17:57;;;;;;;2.50;1.33;;;;;;;28.69;38.72;99378.81;5097465;28;20461;-57
2022/07/19 06:20:23;;;;;;;2.60;1.20;;;;;;;28.70;38.64;99383.22;5091172;28;20040;-70
2022/07/19 06:22:48;;;;;;;1.88;1.30;;;;;;;28.70;38.78;99375.56;5088884;28;20112;-58
2022/07/19 06:25:13;;;;;;;2.08;1.35;;;;;;;28.68;38.65;99380.03;5088417;28;20425;-58
2022/07/19 06:27:39;;;;;;;1.85;1.13;;;;;;;28.68;38.67;99380.03;5092693;28;20044;-70
2022/07/19 06:30:05;;;;;;;1.98;1.30;;;;;;;28.67;38.62;99375.66;5097201;28;20052;-71
2022/07/19 06:32:30;;;;;;;2.05;1.30;;;;;;;28.64;38.57;99368.03;5103116;28;20036;-71
2022/07/19 06:34:55;;;;;;;2.05;1.30;;;;;;;28.62;38.60;99362.06;5093894;28;20040;-58
2022/07/19 06:37:21;;;;;;;1.63;1.13;;;;;;;28.64;38.58;99371.66;5088763;28;20126;-58
2022/07/19 06:39:47;;;;;;;2.17;1.35;;;;;;;28.66;38.46;99374.84;5092021;28;20044;-57
2022/07/19 06:42:13;;;;;;;1.60;1.20;;;;;;;28.60;38.21;99362.50;5095110;28;20181;-58
2022/07/19 06:44:38;;;;;;;2.15;1.27;;;;;;;28.59;38.25;99368.56;5102370;28;20119;-57
2022/07/19 06:47:05;;;;;;;2.20;1.40;;;;;;;28.60;38.17;99362.50;5097680;28;20431;-58
2022/07/19 06:49:30;;;;;;;2.28;1.38;;;;;;;28.60;38.10;99370.13;5091613;28;20411;-70
2022/07/19 06:51:56;;;;;;;2.10;1.45;;;;;;;28.59;38.33;99360.13;5091641;28;20515;-68
2022/07/19 06:54:21;;;;;;;3.58;1.83;;;;;;;28.60;37.69;99356.06;5100099;28;20047;-69
2022/07/19 06:56:46;;;;;;;3.72;2.10;;;;;;;28.52;37.68;99359.00;5067011;28;20048;-70
2022/07/19 06:59:12;;;;;;;4.75;2.13;;;;;;;28.52;37.50;99356.19;5094080;28;20040;-70
2022/07/19 07:01:37;;;;;;;6.32;2.53;;;;;;;28.48;37.88;99357.47;5107428;28;20061;-71
2022/07/19 07:04:04;;;;;;;9.48;2.95;;;;;;;28.46;38.21;99359.94;5098350;28;20036;-59
2022/07/19 07:06:30;;;;;;;10.18;3.42;;;;;;;28.48;38.49;99346.22;5102966;28;20084;-58
2022/07/19 07:08:56;;;;;;;12.50;3.22;;;;;;;28.46;38.54;99357.13;5096399;28;20490;-59
2022/07/19 07:11:22;;;;;;;12.50;3.58;;;;;;;28.48;38.02;99355.44;5100881;28;20113;-66
2022/07/19 07:13:48;;;;;;;10.70;2.70;;;;;;;28.45;37.81;99350.69;5093206;28;20035;-58
2022/07/19 07:16:13;;;;;;;7.20;2.50;;;;;;;28.45;37.58;99336.63;5093449;28;20043;-58
2022/07/19 07:18:39;;;;;;;5.30;2.13;;;;;;;28.48;37.62;99349.03;5092682;28;20360;-58
2022/07/19 07:21:04;;;;;;;9.45;2.67;;;;;;;28.55;37.38;99348.13;5094505;28;20050;-69
2022/07/19 07:23:30;;;;;;;10.18;2.58;;;;;;;28.59;37.18;99348.84;5090177;28;20054;-58
2022/07/19 07:25:55;;;;;;;2.92;1.90;;;;;;;28.55;37.12;99345.28;5090517;28;20075;-58
2022/07/19 07:28:21;;;;;;;5.15;2.17;;;;;;;28.59;36.90;99340.41;5088136;28;20596;-67
2022/07/19 07:30:46;;;;;;;4.50;1.77;;;;;;;28.54;37.18;99335.28;5088132;28;20075;-66
2022/07/19 07:33:11;;;;;;;3.22;1.92;;;;;;;28.55;36.74;99346.09;5094653;28;20050;-69
2022/07/19 07:35:37;;;;;;;3.90;1.80;;;;;;;28.60;36.83;99336.38;5089055;28;20078;-58
2022/07/19 07:38:02;;;;;;;3.55;1.77;;;;;;;28.58;36.77;99336.81;5100623;28;20119;-59
2022/07/19 07:40:28;;;;;;;2.95;1.58;;;;;;;28.57;36.68;99334.41;5090842;28;20411;-59
2022/07/19 07:42:53;;;;;;;2.92;1.77;;;;;;;28.47;37.02;99336.97;5090170;28;20079;-58
2022/07/19 07:45:19;;;;;;;6.50;1.73;;;;;;;28.50;37.19;99335.31;5075690;28;20040;-68
2022/07/19 07:47:45;;;;;;;5.15;1.67;;;;;;;28.49;37.03;99334.53;5092920;28;20139;-71
2022/07/19 07:50:10;;;;;;;3.22;1.58;;;;;;;28.54;37.22;99338.09;5089457;28;20134;-68
2022/07/19 07:52:36;;;;;;;4.72;1.77;;;;;;;28.57;37.37;99331.59;5097170;28;20086;-65
2022/07/19 07:55:02;;;;;;;3.47;1.60;;;;;;;28.56;37.64;99315.94;5099051;28;20051;-70
2022/07/19 07:57:28;;;;;;;3.03;1.50;;;;;;;28.63;37.43;99308.16;5092196;28;20047;-70
2022/07/19 07:59:53;;;;;;;4.50;1.70;;;;;;;28.58;37.22;99300.22;5089578;28;20043;-56
2022/07/19 08:02:18;;;;;;;2.95;1.55;;;;;;;28.59;37.17;99310.25;5095247;28;20051;-56
2022/07/19 08:04:44;;;;;;;4.82;1.40;;;;;;;28.59;37.03;99303.81;5094615;28;20050;-57
2022/07/19 08:07:09;;;;;;;3.33;1.70;;;;;;;28.62;36.91;99297.31;5097088;28;20051;-67
2022/07/19 08:09:35;;;;;;;2.90;1.40;;;;;;;28.66;36.80;99303.69;5100660;28;20040;-68
2022/07/19 08:12:01;;;;;;;2.17;1.52;;;;;;;28.67;36.67;99297.63;5100266;28;20121;-56
2022/07/19 08:14:28;;;;;;;6.03;1.60;;;;;;;28.63;36.51;99288.44;5095099;28;20040;-56
2022/07/19 08:16:54;;;;;;;3.25;1.80;;;;;;;28.62;36.79;99288.88;5072416;28;20051;-57
2022/07/19 08:19:20;;;;;;;3.25;1.63;;;;;;;28.69;36.89;99288.75;5100764;28;20052;-57
2022/07/19 08:21:45;;;;;;;4.18;1.60;;;;;;;28.71;37.09;99275.81;5097571;28;20054;-56
2022/07/19 08:24:12;;;;;;;3.60;1.50;;;;;;;28.71;36.86;99277.84;5099474;28;20044;-57
2022/07/19 08:26:39;;;;;;;3.30;1.60;;;;;;;28.63;36.43;99274.38;5100662;28;20173;-56
2022/07/19 08:29:05;;;;;;;2.50;1.48;;;;;;;28.59;38.17;99275.69;5098369;28;20082;-70
2022/07/19 08:31:30;;;;;;;2.90;1.45;;;;;;;28.64;37.89;99277.97;5098215;28;20432;-71
2022/07/19 08:33:56;;;;;;;3.05;1.33;;;;;;;28.68;37.79;99264.63;5092770;28;20117;-76
2022/07/19 08:36:21;;;;;;;8.05;1.60;;;;;;;28.67;36.64;99266.66;5094943;28;20052;-57
2022/07/19 08:38:47;;;;;;;2.72;1.40;;;;;;;28.64;37.98;99263.91;5095721;28;20050;-70
2022/07/19 08:41:14;;;;;;;3.80;1.50;;;;;;;28.66;37.52;99262.25;5092610;28;20057;-56
2022/07/19 08:43:40;;;;;;;2.83;1.50;;;;;;;28.69;37.41;99258.56;5095496;28;20084;-56
2022/07/19 08:46:05;;;;;;;2.90;1.60;;;;;;;28.72;36.62;99246.47;5099535;28;20044;-66
2022/07/19 08:48:34;;;;;;;6.45;1.50;;;;;;;28.61;36.56;99245.09;5096015;28;20113;-56
2022/07/19 08:51:02;;;;;;;3.92;1.60;;;;;;;28.53;36.96;99244.44;5096968;28;20052;-57
2022/07/19 08:53:32;;;;;;;3.83;1.45;;;;;;;28.52;36.84;99240.81;5095696;28;20467;-57
2022/07/19 08:55:59;;;;;;;5.13;1.50;;;;;;;28.58;36.55;99240.34;5093824;28;20770;-57
2022/07/19 08:58:25;;;;;;;4.95;1.50;;;;;;;28.64;36.47;99247.03;5094621;28;20046;-57
2022/07/19 09:00:53;;;;;;;3.15;1.42;;;;;;;28.56;35.00;99239.94;5095669;28;20048;-58
2022/07/19 09:03:22;;;;;;;6.20;1.50;;;;;;;28.45;36.27;99240.97;5098440;28;20051;-57
2022/07/19 09:06:02;;;;;;;3.30;1.50;;;;;;;28.51;36.13;99230.81;5097635;28;20088;-58
2022/07/19 09:08:27;;;;;;;2.88;1.50;;;;;;;28.55;36.28;99221.47;5098785;28;20047;-57
2022/07/19 09:13:37;;;;;;;2.42;1.40;;;;;;;28.54;35.20;99223.50;5098863;28;20082;-71
2022/07/19 09:16:03;;;;;;;2.35;1.42;;;;;;;28.47;36.41;99232.09;5098990;28;20047;-70
2022/07/19 09:18:37;;;;;;;3.47;1.60;;;;;;;28.45;35.76;99226.09;5095369;28;20184;-56
2022/07/19 09:21:05;;;;;;;2.45;1.48;;;;;;;28.59;35.59;99222.22;5086246;28;20052;-70
2022/07/19 09:23:31;;;;;;;3.40;1.50;;;;;;;28.67;35.18;99212.41;5087223;28;20059;-57
2022/07/19 09:25:58;;;;;;;3.45;1.48;;;;;;;28.69;34.60;99210.72;5096980;28;20109;-57
2022/07/19 09:28:26;;;;;;;2.63;1.50;;;;;;;28.64;34.72;99221.69;5094209;28;20055;-68
2022/07/19 09:30:54;;;;;;;2.67;1.33;;;;;;;28.56;35.19;99211.81;5095343;28;20102;-69
2022/07/19 09:33:25;;;;;;;2.88;1.65;;;;;;;28.58;35.39;99207.34;5096819;28;20407;-71
2022/07/19 09:35:56;;;;;;;2.95;1.67;;;;;;;28.63;34.85;99211.66;5097357;28;20463;-66
2022/07/19 09:38:33;;;;;;;2.92;1.50;;;;;;;28.52;35.99;99207.06;5098948;28;20036;-78
2022/07/19 09:41:15;;;;;;;3.15;1.50;;;;;;;28.45;35.89;99204.38;5095435;28;20056;-57
2022/07/19 09:43:51;;;;;;;2.35;1.58;;;;;;;28.54;35.78;99200.19;5090721;28;21425;-68
2022/07/19 09:46:36;;;;;;;2.40;1.40;;;;;;;28.51;34.55;99190.63;5095964;28;20115;-69
2022/07/19 09:49:04;;;;;;;2.60;1.55;;;;;;;28.39;36.03;99183.59;5080397;28;20743;-69
2022/07/19 09:51:33;;;;;;;3.00;1.70;;;;;;;28.42;35.79;99181.94;5096093;28;20044;-57
2022/07/19 09:53:59;;;;;;;2.47;1.58;;;;;;;28.54;35.47;99177.69;5094111;28;20623;-57
2022/07/19 09:56:27;;;;;;;2.83;1.67;;;;;;;28.56;34.69;99175.22;5087311;28;20050;-69
2022/07/19 09:58:54;;;;;;;4.18;2.15;;;;;;;28.49;35.86;99171.31;5083998;28;20403;-69
2022/07/19 10:01:20;;;;;;;3.33;1.85;;;;;;;28.52;35.50;99169.69;5090304;28;20044;-70
2022/07/19 10:03:47;;;;;;;3.53;1.60;;;;;;;28.57;35.65;99160.72;5093668;28;20043;-70
2022/07/19 10:06:12;;;;;;;3.47;1.95;;;;;;;28.61;35.04;99164.25;5096110;28;20094;-57
2022/07/19 10:08:38;;;;;;;3.17;1.90;;;;;;;28.55;35.86;99153.94;5087456;28;20043;-57
2022/07/19 10:11:03;;;;;;;3.90;1.95;;;;;;;28.52;35.75;99152.81;5088243;28;20429;-70
2022/07/19 10:13:29;;;;;;;6.85;1.77;;;;;;;28.56;35.83;99141.47;5079343;28;20506;-69
2022/07/19 10:15:57;;;;;;;4.97;1.92;;;;;;;28.60;35.24;99150.63;5081303;28;20048;-68
2022/07/19 10:18:31;;;;;;;3.78;2.03;;;;;;;28.49;36.55;99137.56;5079632;28;20056;-67
2022/07/19 10:20:58;;;;;;;2.88;1.77;;;;;;;28.46;36.81;99130.00;5082896;28;20044;-57
2022/07/19 10:23:28;;;;;;;2.75;1.80;;;;;;;28.40;37.02;99136.56;5081860;28;20036;-57
2022/07/19 10:25:54;;;;;;;3.42;2.00;;;;;;;28.46;37.14;99132.81;5080802;28;20124;-58
2022/07/19 10:28:34;;;;;;;3.17;1.75;;;;;;;28.54;37.13;99121.41;5063908;28;20135;-68
2022/07/19 10:31:00;;;;;;;2.92;1.80;;;;;;;28.58;37.12;99122.94;5069037;28;20053;-57
2022/07/19 10:33:29;;;;;;;2.65;1.70;;;;;;;28.60;36.56;99116.84;5077627;28;20028;-57
2022/07/19 10:35:55;;;;;;;3.67;2.10;;;;;;;28.51;38.12;99117.47;5081113;28;20040;-67
2022/07/19 10:38:20;;;;;;;2.70;1.90;;;;;;;28.45;37.93;99114.34;5083667;28;20053;-68
2022/07/19 10:40:58;;;;;;;2.47;1.90;;;;;;;28.48;38.11;99101.44;5086874;28;20391;-57
2022/07/19 10:43:25;;;;;;;2.88;1.90;;;;;;;28.54;38.18;99110.16;5079515;28;20032;-57
2022/07/19 10:45:57;;;;;;;2.80;1.92;;;;;;;28.58;38.35;99096.81;5085856;28;20047;-57
2022/07/19 10:48:40;;;;;;;3.08;1.90;;;;;;;28.55;36.94;99094.84;5084630;28;20172;-58
2022/07/19 10:51:26;;;;;;;2.50;1.80;;;;;;;28.42;38.99;99089.88;5085031;28;20143;-57
2022/07/19 10:54:08;;;;;;;2.67;1.95;;;;;;;28.33;38.73;99092.50;5082650;28;20050;-57
2022/07/19 10:57:02;;;;;;;2.38;1.90;;;;;;;28.31;38.68;99086.53;5078227;28;20075;-57
2022/07/19 10:59:37;;;;;;;2.97;2.10;;;;;;;28.39;38.81;99085.13;5082034;28;20036;-64
2022/07/19 11:02:04;;;;;;;2.88;2.05;;;;;;;28.48;38.41;99074.09;5078494;28;20142;-68
2022/07/19 11:04:35;;;;;;;3.00;2.08;;;;;;;28.53;38.38;99067.16;5079676;28;20037;-68
2022/07/19 11:07:15;;;;;;;2.40;1.90;;;;;;;28.61;38.51;99056.53;5078550;28;20569;-57
2022/07/19 11:09:44;;;;;;;2.60;1.85;;;;;;;28.56;37.78;99059.84;5084674;28;20068;-58
2022/07/19 11:12:20;;;;;;;2.38;1.98;;;;;;;28.47;39.57;99052.00;5078185;28;20052;-58
2022/07/19 11:14:45;;;;;;;3.20;2.03;;;;;;;28.44;39.36;99053.69;5077719;28;20052;-58
2022/07/19 11:17:11;;;;;;;2.42;1.95;;;;;;;28.48;39.17;99050.78;5073859;28;20049;-56
2022/07/19 11:19:36;;;;;;;2.35;2.00;;;;;;;28.59;39.39;99042.09;5076178;28;20761;-57
2022/07/19 11:22:02;;;;;;;2.47;1.80;;;;;;;28.62;38.69;99033.56;5067474;28;20056;-59
2022/07/19 11:24:27;;;;;;;5.43;2.20;;;;;;;28.56;39.23;99029.69;5078702;28;20044;-56
2022/07/19 11:26:55;;;;;;;2.80;2.03;;;;;;;28.45;39.82;99018.69;5079997;28;20051;-56
2022/07/19 11:29:21;;;;;;;2.58;2.00;;;;;;;28.46;39.91;99019.47;5068834;28;20036;-56
2022/07/19 11:31:50;;;;;;;3.70;2.10;;;;;;;28.53;39.52;99010.88;5076227;28;20040;-57
2022/07/19 11:34:16;;;;;;;2.92;1.90;;;;;;;28.57;38.60;99008.75;5078026;28;20051;-57
2022/07/19 11:36:41;;;;;;;4.78;2.00;;;;;;;28.50;40.06;99004.13;5077461;28;20056;-68